Bristers, Mississippi
Current Conditions -  °F | °C
As of 3:36 PM on Friday 19 Dec 2014 (Local Time) from KMCB Reporting Station
Moderate Rain Moderate Rain  
Wind Chill: 42°   Ceiling: 2400
Heat Index: 45°   Visibility: 3mi
Dew Point: 42°   Wind: 6mph
Humidity: 90%   Direction: 60°ENE
Pressure: 30.09"   Gusts: NA
Location:  31.4096°N, 90.1856°W
Report Text: KMCB 192136Z AUTO 06005KT 3SM RA BR BKN024 BKN032 OVC038 07/06 A3009 RMK AO2 P0006 T00720056
Loading
Personal Weather Stations






























Interactive Weather Map New forecast layout! Learn more

10-Day Weather Forecast

Advertisements
Track Severe Weather on mobile